createdAt,value
2019-02-24T00:00:47.213Z,83.11
2019-02-24T00:03:16.750Z,83.16
2019-02-24T00:05:46.270Z,83.19
2019-02-24T00:08:16.207Z,83.14
2019-02-24T00:10:45.727Z,83.22
2019-02-24T00:13:15.403Z,83.25
2019-02-24T00:15:44.978Z,83.67
2019-02-24T00:18:14.535Z,83.77
2019-02-24T00:20:44.199Z,83.60
2019-02-24T00:23:13.644Z,83.57
2019-02-24T00:25:43.335Z,83.61
2019-02-24T00:28:12.959Z,83.62
2019-02-24T00:30:42.458Z,83.74
2019-02-24T00:33:12.121Z,83.79
2019-02-24T00:35:41.617Z,83.87
2019-02-24T00:38:11.257Z,83.89
2019-02-24T00:40:40.863Z,83.94
2019-02-24T00:43:10.323Z,84.03
2019-02-24T00:45:39.891Z,84.10
2019-02-24T00:48:09.418Z,84.05
2019-02-24T00:50:38.994Z,84.16
2019-02-24T00:53:08.615Z,84.30
2019-02-24T00:55:38.303Z,84.67
2019-02-24T00:58:15.895Z,84.69
2019-02-24T01:00:39.543Z,84.54
2019-02-24T01:03:09.354Z,84.98
2019-02-24T01:05:38.907Z,84.94
2019-02-24T01:08:10.852Z,84.70
2019-02-24T01:10:43.325Z,84.60
2019-02-24T01:13:12.775Z,84.58
2019-02-24T01:15:42.367Z,84.69
2019-02-24T01:18:11.859Z,84.81
2019-02-24T01:20:41.467Z,84.70
2019-02-24T01:23:11.161Z,84.80
2019-02-24T01:25:40.779Z,84.94
2019-02-24T01:28:10.423Z,85.04
2019-02-24T01:30:39.907Z,85.06
2019-02-24T01:33:09.388Z,85.40
2019-02-24T01:35:39.359Z,85.74
2019-02-24T01:38:09.247Z,85.59
2019-02-24T01:40:38.739Z,85.63
2019-02-24T01:43:08.251Z,85.74
2019-02-24T01:45:40.243Z,85.50
2019-02-24T01:48:12.381Z,85.27
2019-02-24T01:50:42.095Z,85.31
2019-02-24T01:53:11.538Z,85.75
2019-02-24T01:55:41.251Z,85.98
2019-02-24T01:58:10.942Z,86.08
2019-02-24T02:00:40.516Z,86.27
2019-02-24T02:03:10.117Z,86.17
2019-02-24T02:05:39.505Z,85.73
2019-02-24T02:08:09.367Z,85.58
2019-02-24T02:10:39.595Z,85.64
2019-02-24T02:13:09.121Z,85.67
2019-02-24T02:15:38.544Z,85.82
2019-02-24T02:18:08.197Z,85.96
2019-02-24T02:20:37.743Z,86.08
2019-02-24T02:23:07.276Z,86.20
2019-02-24T02:25:36.963Z,86.33
2019-02-24T02:28:06.601Z,86.37
2019-02-24T02:30:36.243Z,86.42
2019-02-24T02:33:05.849Z,86.50
2019-02-24T02:35:35.377Z,86.59
2019-02-24T02:38:05.120Z,86.81
2019-02-24T02:40:35.199Z,86.85
2019-02-24T02:43:04.740Z,86.92
2019-02-24T02:45:34.319Z,86.84
2019-02-24T02:48:04.161Z,86.92
2019-02-24T02:50:33.601Z,86.88
2019-02-24T02:53:03.062Z,86.96
2019-02-24T02:55:32.513Z,86.94
2019-02-24T02:58:01.984Z,86.93
2019-02-24T03:00:33.058Z,86.99
2019-02-24T03:03:02.658Z,87.11
2019-02-24T03:05:32.136Z,87.37
2019-02-24T03:08:13.090Z,87.49
2019-02-24T03:10:42.686Z,87.54
2019-02-24T03:13:12.283Z,87.44
2019-02-24T03:15:41.783Z,87.55
2019-02-24T03:18:11.267Z,87.71
2019-02-24T03:20:40.823Z,87.79
2019-02-24T03:23:10.388Z,88.00
2019-02-24T03:25:39.855Z,88.25
2019-02-24T03:28:09.318Z,88.18
2019-02-24T03:30:38.922Z,88.25
2019-02-24T03:33:08.613Z,88.18
2019-02-24T03:35:38.180Z,88.23
2019-02-24T03:38:08.058Z,88.29
2019-02-24T03:40:37.520Z,88.40
2019-02-24T03:43:07.050Z,88.46
2019-02-24T03:45:36.987Z,88.69
2019-02-24T03:48:06.675Z,88.84
2019-02-24T03:50:36.201Z,88.84
2019-02-24T03:53:05.621Z,88.71
2019-02-24T03:55:35.301Z,88.80
2019-02-24T03:58:04.856Z,88.89
2019-02-24T04:00:34.433Z,88.83
2019-02-24T04:03:03.990Z,88.86
2019-02-24T04:05:33.442Z,89.02
2019-02-24T04:08:02.941Z,89.24
2019-02-24T04:10:32.445Z,89.37
2019-02-24T04:13:02.012Z,89.32
2019-02-24T04:15:31.568Z,89.24
2019-02-24T04:18:00.987Z,89.14
2019-02-24T04:20:30.412Z,89.20
2019-02-24T04:22:59.804Z,89.28
2019-02-24T04:25:29.329Z,89.43
2019-02-24T04:27:58.788Z,89.64
2019-02-24T04:30:28.275Z,89.64
2019-02-24T04:32:57.856Z,89.54
2019-02-24T04:35:27.455Z,89.64
2019-02-24T04:37:56.940Z,89.74
2019-02-24T04:40:26.409Z,89.85
2019-02-24T04:42:56.078Z,90.12
2019-02-24T04:45:26.065Z,90.30
2019-02-24T04:47:55.621Z,90.22
2019-02-24T04:50:25.080Z,89.74
2019-02-24T04:52:54.846Z,89.54
2019-02-24T04:55:24.253Z,89.51
2019-02-24T04:57:53.855Z,89.33
2019-02-24T05:00:23.343Z,89.41
2019-02-24T05:02:52.873Z,89.51
2019-02-24T05:05:22.388Z,89.64
2019-02-24T05:07:51.862Z,89.81
2019-02-24T05:10:22.185Z,89.91
2019-02-24T05:12:51.658Z,89.99
2019-02-24T05:15:21.059Z,90.36
2019-02-24T05:17:50.606Z,90.77
2019-02-24T05:20:20.670Z,90.54
2019-02-24T05:22:50.223Z,90.19
2019-02-24T05:25:19.765Z,89.89
2019-02-24T05:27:49.451Z,89.77
2019-02-24T05:30:18.990Z,89.98
2019-02-24T05:32:48.398Z,89.97
2019-02-24T05:35:17.826Z,89.94
2019-02-24T05:37:47.459Z,89.98
2019-02-24T05:40:17.092Z,90.09
2019-02-24T05:42:46.617Z,90.00
2019-02-24T05:45:16.653Z,89.89
2019-02-24T05:47:46.226Z,90.13
2019-02-24T05:50:16.015Z,90.16
2019-02-24T05:52:45.924Z,90.04
2019-02-24T05:55:15.514Z,90.05
2019-02-24T05:57:44.953Z,90.13
2019-02-24T06:00:14.586Z,90.23
2019-02-24T06:02:44.134Z,90.31
2019-02-24T06:05:13.794Z,90.37
2019-02-24T06:07:43.342Z,90.36
2019-02-24T06:10:12.860Z,90.48
2019-02-24T06:12:42.469Z,90.51
2019-02-24T06:15:12.202Z,90.60
2019-02-24T06:17:41.732Z,90.68
2019-02-24T06:20:11.782Z,90.89
2019-02-24T06:22:41.310Z,90.77
2019-02-24T06:25:10.771Z,90.79
2019-02-24T06:27:40.445Z,90.79
2019-02-24T06:30:10.133Z,90.75
2019-02-24T06:32:39.596Z,90.76
2019-02-24T06:35:09.524Z,90.82
2019-02-24T06:37:38.938Z,90.81
2019-02-24T06:40:08.699Z,90.95
2019-02-24T06:42:38.159Z,91.13
2019-02-24T06:45:07.847Z,91.34
2019-02-24T06:47:37.505Z,91.50
2019-02-24T06:50:07.645Z,91.31
2019-02-24T06:52:37.304Z,91.12
2019-02-24T06:55:07.755Z,91.26
2019-02-24T06:57:37.149Z,91.17
2019-02-24T07:00:13.827Z,91.03
2019-02-24T07:02:38.275Z,91.14
2019-02-24T07:05:08.244Z,91.14
2019-02-24T07:07:37.665Z,91.10
2019-02-24T07:10:07.710Z,91.11
2019-02-24T07:12:37.167Z,91.20
2019-02-24T07:15:06.886Z,91.43
2019-02-24T07:17:36.479Z,91.61
2019-02-24T07:20:06.389Z,91.79
2019-02-24T07:22:35.965Z,91.92
2019-02-24T07:25:05.979Z,91.84
2019-02-24T07:27:35.460Z,91.90
2019-02-24T07:30:05.093Z,91.86
2019-02-24T07:32:34.827Z,92.03
2019-02-24T07:35:04.435Z,92.16
2019-02-24T07:37:33.918Z,92.12
2019-02-24T07:40:03.374Z,91.88
2019-02-24T07:42:33.756Z,91.82
2019-02-24T07:45:03.386Z,91.94
2019-02-24T07:47:32.985Z,91.95
2019-02-24T07:50:02.495Z,91.94
2019-02-24T07:52:32.101Z,91.93
2019-02-24T07:55:01.924Z,91.93
2019-02-24T07:57:31.469Z,91.80
2019-02-24T08:00:00.986Z,91.78
2019-02-24T08:02:30.472Z,91.79
2019-02-24T08:05:00.095Z,91.74
2019-02-24T08:07:29.689Z,91.74
2019-02-24T08:09:59.163Z,91.87
2019-02-24T08:12:28.615Z,91.97
2019-02-24T08:14:58.125Z,92.04
2019-02-24T08:17:27.703Z,91.99
2019-02-24T08:19:57.711Z,91.87
2019-02-24T08:22:27.172Z,91.82
2019-02-24T08:24:57.043Z,91.73
2019-02-24T08:27:26.572Z,91.63
2019-02-24T08:29:56.430Z,91.59
2019-02-24T08:32:26.385Z,91.44
2019-02-24T08:34:55.984Z,91.31
2019-02-24T08:37:25.523Z,91.28
2019-02-24T08:39:55.134Z,91.35
2019-02-24T08:42:24.703Z,91.24
2019-02-24T08:44:54.284Z,91.09
2019-02-24T08:47:23.879Z,91.14
2019-02-24T08:49:53.384Z,90.85
2019-02-24T08:52:22.907Z,90.83
2019-02-24T08:54:52.551Z,90.90
2019-02-24T08:57:22.111Z,90.84
2019-02-24T08:59:52.241Z,90.58
2019-02-24T09:02:21.851Z,89.98
2019-02-24T09:04:51.336Z,89.54
2019-02-24T09:07:20.940Z,89.48
2019-02-24T09:09:50.599Z,89.37
2019-02-24T09:12:20.158Z,89.13
2019-02-24T09:14:49.690Z,88.88
2019-02-24T09:17:19.205Z,88.70
2019-02-24T09:19:48.764Z,88.49
2019-02-24T09:22:18.378Z,88.17
2019-02-24T09:24:47.894Z,88.09
2019-02-24T09:27:17.387Z,88.05
2019-02-24T09:29:47.492Z,87.84
2019-02-24T09:32:17.564Z,87.47
2019-02-24T09:34:47.056Z,87.01
2019-02-24T09:37:16.561Z,86.55
2019-02-24T09:39:46.075Z,86.11
2019-02-24T09:42:15.655Z,86.20
2019-02-24T09:44:45.216Z,85.84
2019-02-24T09:47:14.605Z,85.35
2019-02-24T09:49:44.173Z,84.75
2019-02-24T09:52:14.530Z,84.23
2019-02-24T09:54:44.159Z,83.96
2019-02-24T09:57:13.670Z,83.43
2019-02-24T09:59:43.281Z,82.87
2019-02-24T10:02:12.770Z,82.32
2019-02-24T10:04:42.514Z,81.90
2019-02-24T10:07:12.285Z,81.26
2019-02-24T10:09:41.885Z,80.56
2019-02-24T10:12:11.538Z,80.18
2019-02-24T10:14:41.023Z,79.41
2019-02-24T10:17:10.605Z,78.22
2019-02-24T10:19:40.224Z,77.60
2019-02-24T10:22:09.818Z,76.54
2019-02-24T10:24:39.460Z,75.89
2019-02-24T10:27:10.004Z,75.26
2019-02-24T10:29:39.564Z,74.65
2019-02-24T10:32:09.389Z,73.67
2019-02-24T10:34:39.186Z,72.74
2019-02-24T10:37:08.784Z,71.75
2019-02-24T10:39:38.527Z,70.91
2019-02-24T10:42:07.990Z,69.92
2019-02-24T10:44:37.628Z,69.18
2019-02-24T10:47:07.727Z,68.20
2019-02-24T10:49:37.794Z,67.20
2019-02-24T10:52:07.554Z,66.59
2019-02-24T10:54:37.187Z,65.17
2019-02-24T10:57:09.902Z,64.08
2019-02-24T10:59:38.523Z,63.48
2019-02-24T11:02:08.238Z,62.70
2019-02-24T11:04:37.956Z,61.79
2019-02-24T11:07:08.024Z,60.99
2019-02-24T11:09:38.083Z,59.78
2019-02-24T11:12:08.980Z,58.87
2019-02-24T11:14:38.950Z,57.33
2019-02-24T11:17:08.773Z,56.14
2019-02-24T11:19:38.433Z,55.23
2019-02-24T11:22:08.098Z,54.14
2019-02-24T11:24:37.903Z,53.30
2019-02-24T11:27:09.759Z,52.15
2019-02-24T11:29:39.824Z,46.02
2019-02-24T11:32:09.652Z,46.08
2019-02-24T11:34:39.718Z,45.23
2019-02-24T11:37:09.553Z,43.31
2019-02-24T11:39:39.226Z,43.24
2019-02-24T11:42:08.929Z,42.29
2019-02-24T11:44:38.722Z,41.94
2019-02-24T11:47:08.402Z,41.52
2019-02-24T11:49:38.434Z,41.22
2019-02-24T11:52:08.504Z,40.83
2019-02-24T11:54:38.304Z,40.61
2019-02-24T11:57:08.143Z,40.15
2019-02-24T11:59:37.782Z,39.76
2019-02-24T12:02:07.583Z,39.51
2019-02-24T12:04:37.206Z,39.42
2019-02-24T12:07:07.032Z,39.57
2019-02-24T12:09:37.194Z,38.52
2019-02-24T12:12:06.951Z,38.07
2019-02-24T12:14:36.936Z,37.64
2019-02-24T12:17:06.747Z,37.33
2019-02-24T12:19:36.719Z,36.47
2019-02-24T12:22:06.518Z,35.81
2019-02-24T12:24:36.415Z,35.71
2019-02-24T12:27:06.350Z,34.84
2019-02-24T12:29:36.115Z,34.85
2019-02-24T12:32:06.311Z,33.97
2019-02-24T12:34:36.155Z,33.88
2019-02-24T12:37:06.121Z,33.69
2019-02-24T12:39:35.895Z,33.45
2019-02-24T12:42:05.714Z,33.33
2019-02-24T12:44:35.526Z,33.08
2019-02-24T12:47:05.340Z,32.93
2019-02-24T12:49:35.194Z,32.46
2019-02-24T12:52:05.138Z,32.57
2019-02-24T12:54:34.888Z,30.66
2019-02-24T12:57:04.856Z,30.67
2019-02-24T12:59:34.735Z,30.72
2019-02-24T13:02:05.918Z,30.50
2019-02-24T13:04:36.106Z,30.50
2019-02-24T13:07:05.874Z,30.21
2019-02-24T13:09:35.667Z,29.48
2019-02-24T13:12:05.661Z,28.06
2019-02-24T13:14:35.752Z,27.29
2019-02-24T13:17:05.639Z,27.50
2019-02-24T13:19:35.696Z,27.46
2019-02-24T13:22:05.611Z,27.51
2019-02-24T13:24:35.743Z,25.82
2019-02-24T13:27:05.983Z,24.62
2019-02-24T13:29:35.854Z,23.75
2019-02-24T13:32:14.467Z,23.63
2019-02-24T13:34:37.639Z,23.97
2019-02-24T13:37:07.615Z,24.01
2019-02-24T13:39:38.553Z,23.23
2019-02-24T13:42:08.514Z,22.61
2019-02-24T13:44:38.514Z,22.67
2019-02-24T13:47:08.559Z,23.02
2019-02-24T13:49:40.372Z,23.43
2019-02-24T13:52:11.180Z,24.06
2019-02-24T13:54:41.343Z,24.45
2019-02-24T13:57:11.145Z,26.07
2019-02-24T13:59:41.003Z,27.05
2019-02-24T14:02:10.757Z,24.41
2019-02-24T14:04:40.846Z,22.13
2019-02-24T14:07:10.810Z,20.33
2019-02-24T14:09:40.628Z,18.94
2019-02-24T14:12:12.472Z,14.97
2019-02-24T14:14:48.845Z,14.58
2019-02-24T14:17:13.985Z,14.24
2019-02-24T14:19:43.967Z,12.31
2019-02-24T14:22:13.938Z,11.65
2019-02-24T14:24:44.079Z,12.15
2019-02-24T14:27:14.696Z,11.60
2019-02-24T14:29:44.782Z,11.04
2019-02-24T14:32:15.099Z,10.54
2019-02-24T14:34:45.358Z,11.47
2019-02-24T14:37:15.392Z,11.46
2019-02-24T14:39:45.264Z,11.31
2019-02-24T14:42:15.138Z,11.68
2019-02-24T14:44:45.084Z,11.62
2019-02-24T14:47:15.076Z,11.29
2019-02-24T14:49:45.293Z,10.84
2019-02-24T14:52:15.297Z,10.66
2019-02-24T14:54:45.391Z,10.32
2019-02-24T14:57:15.931Z,9.85
2019-02-24T14:59:45.956Z,10.14
2019-02-24T15:02:16.019Z,9.92
2019-02-24T15:04:46.074Z,10.33
2019-02-24T15:07:16.368Z,9.48
2019-02-24T15:09:46.207Z,10.01
2019-02-24T15:12:16.128Z,10.04
2019-02-24T15:14:46.214Z,11.05
2019-02-24T15:17:16.113Z,11.21
2019-02-24T15:19:45.913Z,11.66
2019-02-24T15:22:16.130Z,11.69
2019-02-24T15:24:46.368Z,11.74
2019-02-24T15:27:16.519Z,7.98
2019-02-24T15:29:47.302Z,8.95
2019-02-24T15:32:17.636Z,10.60
2019-02-24T15:34:47.678Z,11.71
2019-02-24T15:37:17.743Z,12.34
2019-02-24T15:39:47.763Z,12.22
2019-02-24T15:42:17.885Z,12.70
2019-02-24T15:44:47.941Z,13.20
2019-02-24T15:47:18.219Z,14.36
2019-02-24T15:49:48.299Z,14.68
2019-02-24T15:52:18.653Z,14.65
2019-02-24T15:54:49.855Z,14.65
2019-02-24T15:57:19.953Z,14.55
2019-02-24T15:59:49.893Z,14.61
2019-02-24T16:02:20.075Z,15.26
2019-02-24T16:04:50.394Z,16.55
2019-02-24T16:07:20.572Z,17.22
2019-02-24T16:09:50.862Z,17.19
2019-02-24T16:12:20.772Z,17.46
2019-02-24T16:14:50.778Z,18.24
2019-02-24T16:17:20.947Z,18.93
2019-02-24T16:19:50.790Z,19.60
2019-02-24T16:22:20.861Z,20.43
2019-02-24T16:24:50.998Z,21.31
2019-02-24T16:27:21.001Z,22.25
2019-02-24T16:29:51.021Z,22.90
2019-02-24T16:32:21.045Z,23.58
2019-02-24T16:34:50.795Z,24.23
2019-02-24T16:37:20.915Z,24.67
2019-02-24T16:39:51.043Z,25.30
2019-02-24T16:42:21.154Z,25.52
2019-02-24T16:44:51.200Z,25.70
2019-02-24T16:47:21.175Z,25.80
2019-02-24T16:49:51.436Z,26.05
2019-02-24T16:52:21.605Z,26.47
2019-02-24T16:54:52.835Z,26.87
2019-02-24T16:57:23.161Z,27.50
2019-02-24T16:59:53.428Z,28.14
2019-02-24T17:02:23.520Z,28.73
2019-02-24T17:04:53.789Z,29.46
2019-02-24T17:07:23.867Z,30.02
2019-02-24T17:09:53.900Z,30.50
2019-02-24T17:12:26.413Z,30.99
2019-02-24T17:14:56.445Z,31.35
2019-02-24T17:17:26.584Z,31.74
2019-02-24T17:19:56.744Z,32.33
2019-02-24T17:22:26.796Z,32.85
2019-02-24T17:24:56.776Z,33.31
2019-02-24T17:27:26.747Z,33.77
2019-02-24T17:29:57.713Z,34.25
2019-02-24T17:32:27.684Z,34.75
2019-02-24T17:34:58.227Z,35.12
2019-02-24T17:37:28.222Z,35.59
2019-02-24T17:39:58.462Z,36.21
2019-02-24T17:42:28.547Z,36.92
2019-02-24T17:44:58.472Z,37.59
2019-02-24T17:47:30.694Z,38.16
2019-02-24T17:50:01.277Z,38.62
2019-02-24T17:52:31.307Z,39.07
2019-02-24T17:55:01.341Z,39.48
2019-02-24T17:57:31.343Z,39.96
2019-02-24T18:00:01.440Z,40.48
2019-02-24T18:02:32.308Z,40.65
2019-02-24T18:05:02.341Z,41.42
2019-02-24T18:07:32.311Z,41.97
2019-02-24T18:10:02.493Z,42.24
2019-02-24T18:12:32.393Z,42.47
2019-02-24T18:15:02.694Z,42.68
2019-02-24T18:17:32.875Z,43.06
2019-02-24T18:20:02.896Z,43.23
2019-02-24T18:22:33.182Z,43.46
2019-02-24T18:25:03.798Z,43.76
2019-02-24T18:27:33.861Z,44.04
2019-02-24T18:30:04.006Z,44.36
2019-02-24T18:32:33.960Z,44.60
2019-02-24T18:35:04.013Z,44.99
2019-02-24T18:37:34.137Z,45.26
2019-02-24T18:40:04.294Z,45.64
2019-02-24T18:42:34.353Z,46.04
2019-02-24T18:45:04.553Z,46.30
2019-02-24T18:47:34.618Z,46.32
2019-02-24T18:50:04.949Z,46.71
2019-02-24T18:52:37.260Z,46.71
2019-02-24T18:55:07.721Z,46.44
2019-02-24T18:57:38.932Z,46.11
2019-02-24T19:00:11.446Z,45.78
2019-02-24T19:02:41.505Z,45.51
2019-02-24T19:05:11.541Z,45.57
2019-02-24T19:07:42.306Z,45.60
2019-02-24T19:10:13.940Z,44.77
2019-02-24T19:12:45.360Z,44.39
2019-02-24T19:15:16.702Z,43.95
2019-02-24T19:17:46.871Z,43.87
2019-02-24T19:20:18.249Z,44.06
2019-02-24T19:22:48.288Z,44.11
2019-02-24T19:25:18.291Z,44.14
2019-02-24T19:27:48.470Z,44.31
2019-02-24T19:30:18.637Z,44.58
2019-02-24T19:32:48.774Z,44.69
2019-02-24T19:35:18.873Z,44.85
2019-02-24T19:37:51.913Z,44.90
2019-02-24T19:40:22.040Z,45.00
2019-02-24T19:42:52.206Z,44.95
2019-02-24T19:45:22.286Z,45.05
2019-02-24T19:47:52.207Z,45.16
2019-02-24T19:50:23.007Z,45.43
2019-02-24T19:52:53.458Z,45.42
2019-02-24T19:55:23.843Z,45.51
2019-02-24T19:57:53.846Z,45.64
2019-02-24T20:00:24.014Z,46.04
2019-02-24T20:02:54.024Z,46.29
2019-02-24T20:05:24.083Z,46.31
2019-02-24T20:07:54.143Z,46.23
2019-02-24T20:10:24.585Z,46.32
2019-02-24T20:12:55.986Z,46.58
2019-02-24T20:15:26.249Z,46.95
2019-02-24T20:17:56.271Z,47.29
2019-02-24T20:20:26.843Z,47.63
2019-02-24T20:22:56.928Z,48.07
2019-02-24T20:25:26.934Z,48.53
2019-02-24T20:27:57.059Z,48.96
2019-02-24T20:30:27.980Z,49.39
2019-02-24T20:32:58.043Z,49.75
2019-02-24T20:35:30.303Z,50.10
2019-02-24T20:38:00.452Z,50.37
2019-02-24T20:40:30.605Z,50.64
2019-02-24T20:43:00.885Z,50.77
2019-02-24T20:45:30.784Z,50.87
2019-02-24T20:48:00.943Z,51.06
2019-02-24T20:50:31.182Z,51.40
2019-02-24T20:53:01.181Z,51.76
2019-02-24T20:55:32.588Z,51.57
2019-02-24T20:58:02.467Z,51.55
2019-02-24T21:00:35.587Z,51.57
2019-02-24T21:03:05.738Z,51.59
2019-02-24T21:05:35.703Z,51.64
2019-02-24T21:08:07.888Z,51.78
2019-02-24T21:10:37.735Z,51.91
2019-02-24T21:13:07.589Z,52.07
2019-02-24T21:15:37.695Z,52.02
2019-02-24T21:18:07.879Z,52.01
2019-02-24T21:20:38.343Z,52.01
2019-02-24T21:23:08.340Z,52.18
2019-02-24T21:25:38.485Z,52.32
2019-02-24T21:28:10.927Z,52.47
2019-02-24T21:30:40.896Z,52.57
2019-02-24T21:33:10.655Z,52.71
2019-02-24T21:35:40.652Z,52.85
2019-02-24T21:38:10.540Z,53.04
2019-02-24T21:40:40.475Z,53.09
2019-02-24T21:43:10.343Z,53.05
2019-02-24T21:45:41.615Z,53.15
2019-02-24T21:48:11.700Z,53.32
2019-02-24T21:50:41.537Z,53.56
2019-02-24T21:53:11.477Z,53.61
2019-02-24T21:55:41.275Z,53.95
2019-02-24T21:58:11.197Z,53.73
2019-02-24T22:00:40.979Z,53.86
2019-02-24T22:03:10.794Z,53.59
2019-02-24T22:05:40.454Z,53.49
2019-02-24T22:08:10.040Z,53.56
2019-02-24T22:10:39.662Z,53.65
2019-02-24T22:13:09.188Z,53.87
2019-02-24T22:15:38.694Z,54.17
2019-02-24T22:18:08.174Z,54.29
2019-02-24T22:20:37.651Z,54.23
2019-02-24T22:23:07.116Z,54.08
2019-02-24T22:25:36.770Z,54.04
2019-02-24T22:28:06.433Z,53.92
2019-02-24T22:30:36.161Z,53.85
2019-02-24T22:33:05.678Z,53.71
2019-02-24T22:35:35.529Z,53.77
2019-02-24T22:38:05.099Z,53.82
2019-02-24T22:40:34.639Z,53.76
2019-02-24T22:43:04.111Z,53.68
2019-02-24T22:45:33.585Z,53.79
2019-02-24T22:48:03.305Z,54.01
2019-02-24T22:50:32.783Z,54.15
2019-02-24T22:53:02.337Z,54.30
2019-02-24T22:55:31.903Z,54.28
2019-02-24T22:58:01.375Z,54.38
2019-02-24T23:00:57.601Z,54.48
2019-02-24T23:03:29.783Z,54.66
2019-02-24T23:05:59.577Z,54.80
2019-02-24T23:08:29.322Z,54.92
2019-02-24T23:10:58.823Z,55.13
2019-02-24T23:13:28.376Z,55.31
2019-02-24T23:15:57.815Z,55.51
2019-02-24T23:18:27.401Z,55.74
2019-02-24T23:20:56.874Z,55.99
2019-02-24T23:23:26.475Z,56.48
2019-02-24T23:25:56.066Z,56.39
2019-02-24T23:28:25.563Z,56.27
2019-02-24T23:30:55.034Z,56.41
2019-02-24T23:33:24.537Z,56.68
2019-02-24T23:35:54.357Z,56.94
2019-02-24T23:38:23.872Z,56.80
2019-02-24T23:40:53.457Z,56.71
2019-02-24T23:43:22.957Z,56.83
2019-02-24T23:45:52.596Z,57.03
2019-02-24T23:48:22.077Z,57.21
2019-02-24T23:50:51.574Z,57.48
2019-02-24T23:53:21.204Z,57.69
2019-02-24T23:55:50.655Z,57.90
2019-02-24T23:58:20.317Z,58.14
